Time;durP1;ratioP1;P1;durP2;ratioP2;P2;SDS_P1;SDS_P2;PMS_P1;PMS_P2;Temp;Humidity;BMP_temperature;BMP_pressure;BME280_temperature;BME280_humidity;BME280_pressure;Samples;Min_cycle;Max_cycle;Signal;HPM_P1;HPM_P2
2023/08/31 00:00:44;;;;;;;7.60;5.90;;;;;;;21.36;51.58;92780.06;4987966;28;20420;-90
2023/08/31 00:03:10;;;;;;;6.60;5.43;;;;;;;21.33;51.75;92788.69;4955360;28;20041;-90
2023/08/31 00:05:40;;;;;;;6.28;5.15;;;;;;;21.34;51.65;92788.13;4972411;28;20513;-90
2023/08/31 00:08:06;;;;;;;6.68;5.72;;;;;;;21.33;51.78;92786.66;4973247;28;20049;-91
2023/08/31 00:10:32;;;;;;;6.85;5.55;;;;;;;21.33;51.93;92788.69;4952140;28;20647;-90
2023/08/31 00:12:58;;;;;;;7.40;6.20;;;;;;;21.32;51.95;92785.19;4956716;28;20558;-90
2023/08/31 00:15:23;;;;;;;6.80;5.55;;;;;;;21.36;51.73;92787.59;4971799;28;20038;-91
2023/08/31 00:17:49;;;;;;;5.90;5.18;;;;;;;21.33;51.57;92794.91;4956938;28;20050;-90
2023/08/31 00:20:14;;;;;;;6.40;5.45;;;;;;;21.32;51.77;92787.19;4967506;28;20050;-90
2023/08/31 00:22:40;;;;;;;6.57;5.35;;;;;;;21.30;51.87;92785.00;4945055;28;20046;-90
2023/08/31 00:25:08;;;;;;;7.00;5.32;;;;;;;21.36;51.18;92788.31;4952588;28;20049;-91
2023/08/31 00:27:34;;;;;;;6.03;5.43;;;;;;;21.34;51.78;92777.13;4965471;28;20376;-91
2023/08/31 00:29:59;;;;;;;5.35;4.65;;;;;;;21.35;51.59;92788.88;4972711;28;20503;-90
2023/08/31 00:32:24;;;;;;;6.20;5.55;;;;;;;21.34;51.63;92781.91;4974805;28;20135;-91
2023/08/31 00:34:50;;;;;;;6.45;4.78;;;;;;;21.35;51.53;92788.88;4971144;28;20045;-90
2023/08/31 00:37:16;;;;;;;5.30;4.70;;;;;;;21.36;51.50;92799.31;4967017;28;20042;-90
2023/08/31 00:39:41;;;;;;;6.43;4.88;;;;;;;21.34;51.62;92796.38;4981171;28;20034;-91
2023/08/31 00:42:07;;;;;;;5.95;4.97;;;;;;;21.34;51.61;92804.63;4983025;28;20034;-91
2023/08/31 00:44:33;;;;;;;10.75;5.90;;;;;;;21.35;51.76;92799.88;4976909;28;20034;-91
2023/08/31 00:46:58;;;;;;;6.25;5.00;;;;;;;21.34;51.85;92806.63;4989916;28;20037;-90
2023/08/31 00:49:24;;;;;;;7.88;4.90;;;;;;;21.34;51.71;92803.88;4969316;28;20038;-91
2023/08/31 00:51:50;;;;;;;6.50;5.18;;;;;;;21.34;51.63;92806.63;4985705;28;20045;-92
2023/08/31 00:54:17;;;;;;;5.95;4.97;;;;;;;21.33;51.52;92803.16;4977313;28;20058;-91
2023/08/31 00:56:42;;;;;;;6.10;4.43;;;;;;;21.34;51.72;92804.63;4980062;28;20053;-90
2023/08/31 00:59:07;;;;;;;6.97;5.05;;;;;;;21.35;51.62;92813.63;4976573;28;20046;-90
2023/08/31 01:01:48;;;;;;;5.82;5.20;;;;;;;21.34;51.74;92815.63;4976890;28;20042;-91
2023/08/31 01:04:24;;;;;;;5.15;4.63;;;;;;;21.34;51.64;92806.63;4986798;28;20058;-89
2023/08/31 01:06:59;;;;;;;8.60;5.30;;;;;;;21.32;51.65;92804.44;4997541;28;20335;-91
2023/08/31 01:09:43;;;;;;;5.65;4.70;;;;;;;21.32;51.65;92809.19;5001296;28;20042;-89
2023/08/31 01:12:14;;;;;;;5.75;5.00;;;;;;;21.32;51.51;92809.19;4988586;28;20060;-90
2023/08/31 01:14:45;;;;;;;6.13;4.95;;;;;;;21.31;51.63;92811.22;4986219;28;20042;-90
2023/08/31 01:17:12;;;;;;;;;;;;;;;21.36;51.59;92817.84;4979063;28;20036;-90
2023/08/31 01:19:53;;;;;;;5.60;4.80;;;;;;;21.33;51.57;92810.66;5008495;28;19933;-91
2023/08/31 01:22:29;;;;;;;4.93;4.28;;;;;;;21.30;51.57;92812.50;5006079;28;20074;-90
2023/08/31 01:24:55;;;;;;;5.65;4.55;;;;;;;21.34;51.71;92815.63;4970723;28;20039;-91
2023/08/31 01:27:20;;;;;;;5.55;4.78;;;;;;;21.33;51.71;92822.41;4982109;28;20133;-90
2023/08/31 01:29:46;;;;;;;5.88;5.10;;;;;;;21.36;51.54;92815.09;4975515;28;20400;-91
2023/08/31 01:32:12;;;;;;;5.43;4.78;;;;;;;21.31;51.80;92813.22;4974283;28;20053;-90
2023/08/31 01:34:37;;;;;;;6.07;4.85;;;;;;;21.32;51.65;92815.44;4973968;28;20041;-91
2023/08/31 01:37:13;;;;;;;7.15;4.65;;;;;;;21.33;51.72;92816.16;4980444;28;20045;-90
2023/08/31 01:39:54;;;;;;;5.03;4.50;;;;;;;21.33;51.57;92818.91;4985083;28;20034;-90
2023/08/31 01:42:20;;;;;;;5.32;4.70;;;;;;;21.37;51.43;92822.06;4972981;28;20222;-89
2023/08/31 01:44:48;;;;;;;6.38;4.60;;;;;;;21.33;51.54;92819.66;4973245;28;20050;-92
2023/08/31 01:47:13;;;;;;;5.32;4.78;;;;;;;21.33;51.52;92813.41;4970450;28;20084;-89
2023/08/31 01:49:39;;;;;;;5.25;4.72;;;;;;;21.34;51.45;92823.13;4974213;28;20038;-92
2023/08/31 01:52:05;;;;;;;6.03;4.30;;;;;;;21.34;51.29;92821.13;4989955;28;20046;-89
2023/08/31 01:54:30;;;;;;;6.15;4.32;;;;;;;21.32;51.51;92820.94;4982941;28;20043;-90
2023/08/31 01:56:56;;;;;;;7.60;4.97;;;;;;;21.35;51.56;92814.34;4995450;28;20038;-89
2023/08/31 01:59:21;;;;;;;7.30;4.85;;;;;;;21.35;51.61;92813.63;4965060;28;20131;-89
2023/08/31 02:01:46;;;;;;;5.22;4.20;;;;;;;21.31;51.72;92827.72;4969847;28;20045;-91
2023/08/31 02:04:12;;;;;;;4.72;4.13;;;;;;;21.36;51.26;92823.34;4971418;28;20120;-91
2023/08/31 02:06:37;;;;;;;6.18;4.32;;;;;;;21.36;51.29;92813.06;4977521;28;20089;-90
2023/08/31 02:09:03;;;;;;;5.30;4.53;;;;;;;21.36;51.67;92810.31;4979016;28;20042;-90
2023/08/31 02:11:28;;;;;;;5.13;4.35;;;;;;;21.31;51.47;92816.72;4976762;28;20046;-90
2023/08/31 02:13:54;;;;;;;5.43;4.55;;;;;;;21.32;51.89;92826.44;4981303;28;20038;-90
2023/08/31 02:16:19;;;;;;;6.00;4.22;;;;;;;21.32;51.57;92820.94;4974651;28;20420;-90
2023/08/31 02:18:44;;;;;;;5.05;4.40;;;;;;;21.33;51.55;92824.41;4978615;28;20045;-91
2023/08/31 02:21:13;;;;;;;5.75;4.57;;;;;;;21.30;51.74;92831.72;4975371;28;20046;-90
2023/08/31 02:23:38;;;;;;;5.43;4.57;;;;;;;21.30;51.52;92818.00;4990944;28;20436;-92
2023/08/31 02:26:04;;;;;;;5.88;4.60;;;;;;;21.33;51.38;92824.41;4975271;28;20050;-90
2023/08/31 02:28:29;;;;;;;5.45;4.53;;;;;;;21.32;51.46;92826.44;4986270;28;20050;-90
2023/08/31 02:30:59;;;;;;;4.80;3.85;;;;;;;21.34;51.60;92828.63;4976182;28;20049;-89
2023/08/31 02:33:24;;;;;;;5.47;4.60;;;;;;;21.31;51.53;92827.72;4969643;28;20795;-90
2023/08/31 02:35:50;;;;;;;5.75;4.22;;;;;;;21.30;51.36;92836.50;4971825;28;20039;-90
2023/08/31 02:38:15;;;;;;;5.40;4.38;;;;;;;21.29;51.66;92844.00;4967959;28;20262;-90
2023/08/31 02:40:41;;;;;;;4.38;3.80;;;;;;;21.29;51.49;92835.03;4974955;28;20061;-91
2023/08/31 02:43:07;;;;;;;6.25;4.38;;;;;;;21.29;51.49;92837.78;4994948;28;20384;-91
2023/08/31 02:45:32;;;;;;;4.47;4.07;;;;;;;21.29;51.60;92840.53;4969206;28;20043;-90
2023/08/31 02:47:58;;;;;;;6.43;4.88;;;;;;;21.28;51.63;92847.28;4968304;28;20033;-90
2023/08/31 02:50:23;;;;;;;5.35;4.30;;;;;;;21.30;51.78;92839.97;4983882;28;20042;-91
2023/08/31 02:52:49;;;;;;;4.78;3.92;;;;;;;21.29;51.74;92840.53;4983559;28;20038;-89
2023/08/31 02:55:14;;;;;;;4.25;3.85;;;;;;;21.29;51.62;92835.75;4971516;28;20521;-92
2023/08/31 02:57:40;;;;;;;5.20;4.43;;;;;;;21.29;51.73;92835.75;4976221;28;20053;-92
2023/08/31 03:00:10;;;;;;;4.20;3.67;;;;;;;21.30;51.77;92831.00;4975989;28;20042;-91
2023/08/31 03:02:35;;;;;;;6.50;3.90;;;;;;;21.31;51.52;92832.47;4971197;28;20042;-89
2023/08/31 03:05:01;;;;;;;5.75;4.05;;;;;;;21.31;51.74;92829.72;4970983;28;20045;-89
2023/08/31 03:07:27;;;;;;;5.63;4.72;;;;;;;21.28;51.54;92830.81;4968937;28;20046;-90
2023/08/31 03:09:52;;;;;;;5.00;3.90;;;;;;;21.30;51.74;92836.50;4981687;28;20519;-89
2023/08/31 03:12:19;;;;;;;4.88;4.38;;;;;;;21.29;51.71;92835.03;4969205;28;20556;-91
2023/08/31 03:14:44;;;;;;;4.15;3.42;;;;;;;21.30;51.37;92831.00;4983275;28;20073;-91
2023/08/31 03:17:09;;;;;;;4.40;4.00;;;;;;;21.29;51.58;92827.50;4987950;28;20046;-90
2023/08/31 03:19:36;;;;;;;4.43;3.88;;;;;;;21.32;51.53;92837.44;4981375;28;20496;-90
2023/08/31 03:22:01;;;;;;;5.13;4.00;;;;;;;21.33;51.59;92840.91;4985379;28;20103;-90
2023/08/31 03:24:27;;;;;;;8.60;4.13;;;;;;;21.33;51.45;92840.91;4989624;28;20037;-91
2023/08/31 03:26:52;;;;;;;4.43;4.03;;;;;;;21.33;51.44;92827.16;4982956;28;20073;-91
2023/08/31 03:29:18;;;;;;;6.07;3.72;;;;;;;21.33;51.46;92846.41;4985866;28;20049;-89
2023/08/31 03:31:43;;;;;;;4.68;3.88;;;;;;;21.29;50.60;92844.00;4987259;28;20042;-90
2023/08/31 03:34:08;;;;;;;8.07;4.55;;;;;;;21.06;50.61;92852.13;4979432;28;20046;-87
2023/08/31 03:36:34;;;;;;;9.63;6.30;;;;;;;20.86;50.87;92855.66;4985546;28;20485;-89
2023/08/31 03:38:59;;;;;;;8.32;6.60;;;;;;;20.66;50.85;92857.19;4976853;28;20041;-87
2023/08/31 03:41:25;;;;;;;9.57;6.95;;;;;;;20.45;51.37;92851.72;4995519;28;20048;-87
2023/08/31 03:43:50;;;;;;;8.88;5.47;;;;;;;20.36;51.11;92845.94;4970265;28;20050;-88
2023/08/31 03:46:16;;;;;;;14.55;4.60;;;;;;;20.16;51.65;92850.91;4999286;28;20113;-86
2023/08/31 03:48:41;;;;;;;8.48;4.07;;;;;;;20.09;51.71;92870.06;4975316;28;20129;-89
2023/08/31 03:51:10;;;;;;;15.30;9.95;;;;;;;20.04;52.01;92868.19;4977504;28;20038;-93
2023/08/31 03:53:35;;;;;;;50.35;23.00;;;;;;;20.15;51.50;92871.38;4983640;28;20042;-92
2023/08/31 03:56:01;;;;;;;80.28;39.95;;;;;;;20.31;51.37;92871.53;4976388;28;20038;-88
2023/08/31 03:58:27;;;;;;;85.05;44.20;;;;;;;20.34;51.09;92875.97;5005943;28;20043;-90
2023/08/31 04:00:53;;;;;;;107.80;47.92;;;;;;;20.36;50.96;92868.63;5006466;28;20530;-89
2023/08/31 04:03:18;;;;;;;146.73;63.78;;;;;;;20.42;50.85;92877.50;4969514;28;20038;-89
2023/08/31 04:05:44;;;;;;;82.70;36.83;;;;;;;20.34;51.06;92867.72;4979455;28;20060;-89
2023/08/31 04:08:09;;;;;;;116.05;34.70;;;;;;;20.44;50.99;92871.47;4992650;28;20041;-88
2023/08/31 04:10:35;;;;;;;57.70;23.80;;;;;;;20.31;51.20;92855.06;4979466;28;20076;-89
2023/08/31 04:13:00;;;;;;;81.60;28.10;;;;;;;20.33;51.27;92877.22;4974863;28;20034;-89
2023/08/31 04:15:26;;;;;;;50.83;23.70;;;;;;;20.41;50.85;92878.03;4996389;28;20061;-89
2023/08/31 04:17:51;;;;;;;48.63;22.17;;;;;;;20.31;51.27;92877.75;4989006;28;20037;-89
2023/08/31 04:20:17;;;;;;;76.03;25.65;;;;;;;20.40;51.06;92879.31;4972066;28;20046;-92
2023/08/31 04:22:43;;;;;;;58.05;21.30;;;;;;;20.38;50.98;92884.59;4962607;28;20061;-91
2023/08/31 04:25:08;;;;;;;191.48;57.05;;;;;;;20.42;50.91;92874.75;4976491;28;20034;-90
2023/08/31 04:27:34;;;;;;;91.72;26.33;;;;;;;20.38;50.88;92877.09;4995670;28;20037;-90
2023/08/31 04:30:00;;;;;;;108.97;26.40;;;;;;;20.32;51.12;92884.72;4973819;28;20050;-90
2023/08/31 04:32:26;;;;;;;103.97;27.58;;;;;;;20.29;51.13;92890.56;4973537;28;20574;-90
2023/08/31 04:34:53;;;;;;;82.68;20.52;;;;;;;20.17;51.48;92885.31;4986973;28;20101;-90
2023/08/31 04:37:18;;;;;;;78.93;18.98;;;;;;;20.25;51.21;92884.66;4985041;28;20117;-92
2023/08/31 04:39:44;;;;;;;68.00;16.65;;;;;;;20.24;51.22;92894.91;4976370;28;20061;-92
2023/08/31 04:42:09;;;;;;;91.30;20.02;;;;;;;20.17;51.29;92901.78;4972933;28;20464;-90
2023/08/31 04:44:36;;;;;;;148.82;26.85;;;;;;;20.14;51.53;92905.59;4982795;28;20065;-93
2023/08/31 04:47:01;;;;;;;143.70;35.58;;;;;;;20.14;51.74;92905.59;4980091;28;20038;-91
2023/08/31 04:49:27;;;;;;;91.60;28.95;;;;;;;20.20;51.81;92919.91;4976165;28;20050;-92
2023/08/31 04:51:52;;;;;;;67.05;21.67;;;;;;;20.15;51.49;92926.28;4981375;28;20045;-91
2023/08/31 04:54:19;;;;;;;67.30;21.60;;;;;;;20.11;51.76;92936.88;4970490;28;20066;-92
2023/08/31 04:56:45;;;;;;;62.08;23.85;;;;;;;20.14;51.69;92938.50;4979042;28;20045;-92
2023/08/31 04:59:11;;;;;;;75.38;21.83;;;;;;;20.18;51.64;92936.19;4971118;28;20038;-90
2023/08/31 05:01:38;;;;;;;88.70;27.63;;;;;;;20.21;51.79;92942.63;4993564;28;20057;-92
2023/08/31 05:04:03;;;;;;;128.25;39.72;;;;;;;20.13;52.02;92939.06;4969742;28;20065;-91
2023/08/31 05:06:29;;;;;;;113.05;52.30;;;;;;;20.08;52.07;92940.66;4972455;28;20042;-90
2023/08/31 05:08:54;;;;;;;141.02;53.03;;;;;;;20.13;52.03;92942.56;4983307;28;20042;-93
2023/08/31 05:11:20;;;;;;;122.90;45.03;;;;;;;20.10;52.03;92934.66;4967908;28;20641;-91
2023/08/31 05:13:46;;;;;;;105.25;35.70;;;;;;;20.08;52.19;92946.16;4961291;28;20062;-92
2023/08/31 05:16:12;;;;;;;88.25;30.08;;;;;;;20.11;52.16;92938.88;4975831;28;20427;-90
2023/08/31 05:18:38;;;;;;;63.75;24.73;;;;;;;20.18;52.03;92943.69;4975395;28;20661;-91
2023/08/31 05:21:03;;;;;;;81.88;25.88;;;;;;;20.18;52.12;92941.66;4989004;28;20421;-90
2023/08/31 05:23:29;;;;;;;74.40;24.75;;;;;;;20.14;52.14;92938.50;4988486;28;20492;-90
2023/08/31 05:25:56;;;;;;;70.65;20.13;;;;;;;20.08;52.42;92946.16;4963208;28;20042;-90
2023/08/31 05:28:22;;;;;;;62.95;19.92;;;;;;;20.21;52.15;92950.84;4970613;28;20047;-89
2023/08/31 05:30:49;;;;;;;71.78;20.00;;;;;;;20.29;52.00;92956.44;4986628;28;20054;-90
2023/08/31 05:33:15;;;;;;;89.75;27.40;;;;;;;20.33;51.90;92951.34;4977984;28;20042;-90
2023/08/31 05:35:41;;;;;;;90.00;25.17;;;;;;;20.40;51.93;92951.44;5010147;28;20049;-91
2023/08/31 05:38:06;;;;;;;100.65;28.02;;;;;;;20.42;51.69;92962.63;4988391;28;20392;-90
2023/08/31 05:40:32;;;;;;;100.38;30.65;;;;;;;20.48;51.75;92960.47;4992882;28;20056;-91
2023/08/31 05:42:58;;;;;;;101.20;31.00;;;;;;;20.56;51.49;92976.31;4976481;28;20518;-90
2023/08/31 05:45:26;;;;;;;116.07;35.45;;;;;;;20.60;51.55;92977.41;4992594;28;20041;-91
2023/08/31 05:47:51;;;;;;;104.00;33.28;;;;;;;20.57;51.40;92975.75;4975807;28;20039;-91
2023/08/31 05:52:44;;;;;;;116.95;35.47;;;;;;;20.65;51.29;92976.56;5033034;23;20072;-89
2023/08/31 05:55:10;;;;;;;114.72;37.10;;;;;;;20.65;51.34;92979.31;5010156;28;20524;-90
2023/08/31 05:57:35;;;;;;;128.00;45.65;;;;;;;20.73;51.18;92979.38;4980717;28;20054;-90
2023/08/31 06:00:01;;;;;;;134.77;40.78;;;;;;;20.80;51.03;92976.69;4988319;28;20053;-87
2023/08/31 06:02:26;;;;;;;121.43;38.95;;;;;;;20.96;51.00;92974.06;4977685;28;20042;-89
2023/08/31 06:04:52;;;;;;;107.47;38.63;;;;;;;20.91;51.13;92983.19;5009968;28;20042;-87
2023/08/31 06:07:17;;;;;;;81.45;34.75;;;;;;;20.96;50.94;92988.53;4995318;28;20165;-89
2023/08/31 06:09:43;;;;;;;105.57;40.22;;;;;;;20.96;50.80;92983.06;4991462;28;20320;-88
2023/08/31 06:12:09;;;;;;;110.78;40.85;;;;;;;20.98;50.78;92969.50;4974746;28;20038;-91
2023/08/31 06:14:35;;;;;;;101.07;40.88;;;;;;;21.00;50.57;92977.22;4976147;28;20034;-86
2023/08/31 06:17:00;;;;;;;105.00;39.03;;;;;;;21.02;50.62;92980.13;4982350;28;20041;-90
2023/08/31 06:19:26;;;;;;;93.20;39.75;;;;;;;21.09;50.53;92973.97;4964304;28;20270;-91
2023/08/31 06:21:51;;;;;;;91.50;39.60;;;;;;;21.06;50.73;92975.78;4946489;28;20108;-92
2023/08/31 06:24:17;;;;;;;91.05;41.58;;;;;;;21.06;50.73;92983.28;4954910;28;20050;-90
2023/08/31 06:26:42;;;;;;;101.43;46.95;;;;;;;21.07;50.46;92982.03;4963483;28;20061;-91
2023/08/31 06:29:10;;;;;;;125.15;44.60;;;;;;;21.03;50.83;92998.09;4973955;28;20046;-90
2023/08/31 06:31:36;;;;;;;119.18;46.95;;;;;;;21.03;50.95;92998.84;4980894;28;20043;-90
2023/08/31 06:34:02;;;;;;;106.22;43.10;;;;;;;21.01;50.76;93003.41;4976125;28;20262;-88
2023/08/31 06:36:27;;;;;;;112.78;43.00;;;;;;;21.03;50.85;93014.59;4968344;28;20039;-88
2023/08/31 06:38:53;;;;;;;102.50;41.92;;;;;;;21.05;50.72;93023.03;4967177;28;20671;-93
2023/08/31 06:41:18;;;;;;;94.57;43.15;;;;;;;21.09;50.45;93023.44;4953596;28;20050;-89
2023/08/31 06:43:45;;;;;;;111.38;42.17;;;;;;;21.17;50.68;93030.50;4964177;28;20047;-91
2023/08/31 06:46:11;;;;;;;86.63;38.72;;;;;;;21.08;50.77;93030.94;4967319;28;20039;-89
2023/08/31 06:48:36;;;;;;;101.65;44.70;;;;;;;21.10;50.78;93036.66;4979348;28;20066;-91
2023/08/31 06:51:03;;;;;;;105.00;46.95;;;;;;;21.11;50.76;93040.88;4987610;28;20427;-87
2023/08/31 06:53:29;;;;;;;95.85;42.20;;;;;;;21.12;50.75;93042.34;4987852;28;20045;-88
2023/08/31 06:55:55;;;;;;;98.65;42.20;;;;;;;21.12;50.68;93047.84;4970270;28;20031;-89
2023/08/31 06:58:20;;;;;;;142.73;51.47;;;;;;;21.15;50.85;93046.03;5003983;28;20144;-91
2023/08/31 07:00:46;;;;;;;118.00;47.83;;;;;;;21.16;50.68;93061.25;4975943;28;20050;-91
2023/08/31 07:03:12;;;;;;;112.70;48.35;;;;;;;21.18;50.64;93053.22;4999702;28;20074;-89
2023/08/31 07:05:41;;;;;;;125.45;48.95;;;;;;;21.18;50.73;93056.69;4970614;28;20088;-91
2023/08/31 07:08:08;;;;;;;138.70;50.22;;;;;;;21.23;50.74;93057.09;4994953;28;20496;-94
2023/08/31 07:10:36;;;;;;;126.15;49.08;;;;;;;;;;4978926;28;20049;-90
2023/08/31 07:13:02;;;;;;;250.38;94.25;;;;;;;21.20;50.50;93032.19;4996974;28;20053;-91
2023/08/31 07:15:27;;;;;;;119.32;38.00;;;;;;;21.24;49.96;93050.34;4987276;28;20058;-89
2023/08/31 07:17:53;;;;;;;134.82;42.05;;;;;;;21.08;50.19;93052.94;4987050;28;20397;-91
2023/08/31 07:20:23;;;;;;;120.38;34.88;;;;;;;21.04;50.55;93054.53;4975470;28;20503;-89
2023/08/31 07:22:48;;;;;;;348.63;244.13;;;;;;;21.12;50.96;93047.13;4990536;28;20080;-87
2023/08/31 07:25:14;;;;;;;131.27;43.10;;;;;;;21.03;50.23;93059.31;5003304;28;20445;-93
2023/08/31 07:27:41;;;;;;;124.95;38.92;;;;;;;21.06;50.25;93058.22;4978828;28;20068;-87
2023/08/31 07:30:07;;;;;;;60.17;22.15;;;;;;;20.92;50.25;93061.59;5013519;28;20192;-86
2023/08/31 07:32:33;;;;;;;72.75;23.65;;;;;;;20.88;50.20;93059.19;4997250;28;20043;-90
2023/08/31 07:34:58;;;;;;;62.42;18.08;;;;;;;20.86;50.52;93047.97;5011618;28;20405;-91
2023/08/31 07:37:24;;;;;;;86.88;27.98;;;;;;;20.83;50.56;93068.28;4977748;28;20046;-89
2023/08/31 07:39:49;;;;;;;72.32;23.35;;;;;;;20.81;50.66;93063.31;4996249;28;20033;-90
2023/08/31 07:42:17;;;;;;;55.13;18.77;;;;;;;20.81;50.45;93068.81;4998585;28;20030;-90
2023/08/31 07:44:44;;;;;;;81.55;22.70;;;;;;;20.82;50.45;93070.28;4984066;28;20053;-91
2023/08/31 07:47:10;;;;;;;96.18;29.20;;;;;;;20.82;50.31;93086.03;4989684;28;20042;-90
2023/08/31 07:49:36;;;;;;;83.28;25.35;;;;;;;20.76;50.32;93074.47;5000334;28;20042;-91
2023/08/31 07:52:03;;;;;;;48.67;18.08;;;;;;;20.72;50.46;93085.78;4999649;28;20121;-95
2023/08/31 07:54:28;;;;;;;48.83;13.98;;;;;;;20.72;50.51;93077.53;4981523;28;20053;-93
2023/08/31 07:56:54;;;;;;;51.03;14.27;;;;;;;20.75;50.54;93083.97;4991357;28;20041;-90
2023/08/31 07:59:19;;;;;;;42.08;11.32;;;;;;;20.79;50.53;93098.81;4993219;28;20048;-89
2023/08/31 08:01:46;;;;;;;33.15;10.35;;;;;;;20.75;50.11;93108.69;4982223;28;20046;-90
2023/08/31 08:04:11;;;;;;;23.55;8.23;;;;;;;20.68;50.15;93101.84;4973886;28;20065;-91
2023/08/31 08:06:37;;;;;;;56.30;10.27;;;;;;;20.71;50.31;93105.53;4984828;28;20500;-89
2023/08/31 08:09:04;;;;;;;23.73;5.85;;;;;;;20.68;50.43;93103.84;4978362;28;20130;-91
2023/08/31 08:11:30;;;;;;;37.97;9.18;;;;;;;20.71;50.42;93111.03;4996039;28;20046;-92
2023/08/31 08:13:56;;;;;;;21.85;6.93;;;;;;;20.72;50.18;93112.50;4996642;28;20071;-90
2023/08/31 08:16:21;;;;;;;21.73;8.52;;;;;;;20.73;50.12;93113.97;4979416;28;20342;-90
2023/08/31 08:18:54;;;;;;;39.78;10.80;;;;;;;20.76;49.97;93116.41;4997243;28;20056;-92
2023/08/31 08:21:20;;;;;;;28.23;8.98;;;;;;;20.76;49.94;93107.41;4989322;28;20096;-90
2023/08/31 08:23:50;;;;;;;29.50;10.00;;;;;;;20.75;50.22;93103.94;4979212;28;20041;-90
2023/08/31 08:26:17;;;;;;;23.40;10.38;;;;;;;20.73;50.08;93106.47;4975138;28;20046;-90
2023/08/31 08:28:42;;;;;;;25.15;8.90;;;;;;;20.80;50.12;93110.56;4982621;28;20039;-90
2023/08/31 08:31:08;;;;;;;33.17;11.15;;;;;;;20.81;50.05;93106.53;4997103;28;20042;-90
2023/08/31 08:33:33;;;;;;;22.77;8.63;;;;;;;20.75;50.16;93106.69;5008841;28;20034;-92
2023/08/31 08:36:00;;;;;;;15.57;7.55;;;;;;;20.80;50.30;93114.03;4995667;28;20129;-89
2023/08/31 08:38:26;;;;;;;31.02;9.40;;;;;;;20.84;50.05;93119.94;5003712;28;20042;-89
2023/08/31 08:40:52;;;;;;;36.10;10.70;;;;;;;20.81;50.11;93112.75;4980962;28;20030;-90
2023/08/31 08:43:21;;;;;;;39.15;11.25;;;;;;;20.89;49.76;93110.09;4978127;28;20116;-90
2023/08/31 08:45:47;;;;;;;44.65;11.27;;;;;;;20.84;50.05;93121.94;4979270;28;20045;-88
2023/08/31 08:48:12;;;;;;;57.58;14.35;;;;;;;20.87;50.24;93118.88;4974299;28;20045;-90
2023/08/31 08:50:38;;;;;;;64.28;29.90;;;;;;;20.89;50.19;93129.34;4970612;28;20050;-88
2023/08/31 08:53:04;;;;;;;64.07;22.00;;;;;;;20.95;50.11;93129.22;4975763;28;20225;-89
2023/08/31 08:55:31;;;;;;;89.82;20.83;;;;;;;20.96;50.01;93130.69;4994083;28;20056;-89
2023/08/31 08:57:58;;;;;;;141.93;25.75;;;;;;;20.91;49.81;93126.81;4976637;28;20065;-90
2023/08/31 09:00:23;;;;;;;140.43;30.27;;;;;;;20.91;49.88;93137.06;4977888;28;20042;-88
2023/08/31 09:02:48;;;;;;;162.35;34.60;;;;;;;20.92;49.29;93139.25;4984448;28;20054;-88
2023/08/31 09:05:14;;;;;;;102.03;32.53;;;;;;;20.96;49.22;93139.69;4964937;28;20100;-90
2023/08/31 09:08:12;;;;;;;112.82;38.40;;;;;;;20.99;49.44;93135.13;4995377;28;20034;-90
2023/08/31 09:10:41;;;;;;;134.48;46.30;;;;;;;20.97;49.18;93140.41;5007236;28;20053;-90
2023/08/31 09:13:14;;;;;;;183.00;52.97;;;;;;;20.96;48.94;93136.94;4992116;28;20046;-89
2023/08/31 09:15:47;;;;;;;172.18;52.13;;;;;;;21.01;48.68;93154.53;4996215;28;20034;-88
2023/08/31 09:18:28;;;;;;;118.82;35.08;;;;;;;21.00;48.64;93144.84;5006037;28;20038;-87
2023/08/31 09:20:54;;;;;;;92.22;32.50;;;;;;;20.99;48.52;93155.09;5007679;28;20042;-86
2023/08/31 09:23:20;;;;;;;90.00;29.35;;;;;;;21.00;48.71;93158.59;4992047;28;20347;-90
2023/08/31 09:25:52;;;;;;;74.32;23.52;;;;;;;21.02;48.09;93165.00;4983065;28;20037;-87
2023/08/31 09:28:22;;;;;;;79.07;22.60;;;;;;;20.88;48.20;93167.06;4996145;28;20049;-89
2023/08/31 09:30:48;;;;;;;;;;;;;;;20.95;48.18;93165.69;4997984;28;20052;-90
2023/08/31 09:33:20;;;;;;;60.92;22.73;;;;;;;20.86;48.18;93174.38;5009341;28;19925;-89
2023/08/31 09:35:54;;;;;;;89.55;25.38;;;;;;;20.86;48.29;93174.38;4984241;28;20038;-88
2023/08/31 09:38:19;;;;;;;112.10;28.33;;;;;;;20.85;48.36;93181.13;4982014;28;20042;-89
2023/08/31 09:40:45;;;;;;;154.00;45.20;;;;;;;20.87;48.27;93179.31;5010522;28;20041;-88
2023/08/31 09:43:11;;;;;;;162.68;45.88;;;;;;;20.88;48.44;93169.06;4974443;28;20038;-89
2023/08/31 09:45:38;;;;;;;182.57;50.53;;;;;;;20.90;48.45;93177.53;4997906;28;20088;-90
2023/08/31 09:48:04;;;;;;;139.57;43.00;;;;;;;20.88;48.08;93185.56;4980091;28;20034;-90
2023/08/31 09:50:33;;;;;;;159.10;46.22;;;;;;;20.94;48.17;93188.19;4993787;28;20038;-91
2023/08/31 09:53:03;;;;;;;234.23;66.53;;;;;;;20.89;48.19;93181.53;4994103;28;20122;-88
2023/08/31 09:55:29;;;;;;;223.13;64.22;;;;;;;20.97;47.94;93198.88;4998275;28;20034;-88
2023/08/31 09:58:00;;;;;;;119.60;37.70;;;;;;;20.95;48.32;93195.16;4994447;28;20037;-87
2023/08/31 10:00:25;;;;;;;176.40;40.65;;;;;;;20.98;48.04;93188.63;4977378;28;20133;-89
2023/08/31 10:02:54;;;;;;;150.23;41.00;;;;;;;20.96;47.74;93200.13;4991632;28;20412;-91
2023/08/31 10:05:19;;;;;;;136.02;37.67;;;;;;;20.87;47.44;93206.81;4972943;28;20067;-90
2023/08/31 10:07:45;;;;;;;113.25;33.65;;;;;;;20.88;47.40;93202.06;4988482;28;20117;-88
2023/08/31 10:10:10;;;;;;;78.95;27.00;;;;;;;20.91;47.31;93203.72;4990377;28;20069;-91
2023/08/31 10:12:36;;;;;;;88.80;24.35;;;;;;;20.83;47.36;93202.91;4970964;28;20049;-87
2023/08/31 10:15:02;;;;;;;94.28;25.00;;;;;;;20.89;47.03;93206.28;4986400;28;20034;-91
2023/08/31 10:17:29;;;;;;;87.47;22.10;;;;;;;20.90;47.24;93207.00;5011684;28;20346;-86
2023/08/31 10:19:55;;;;;;;52.20;15.48;;;;;;;20.83;47.00;93211.88;4993646;28;20033;-89
2023/08/31 10:22:21;;;;;;;37.60;14.32;;;;;;;20.75;46.83;93218.56;5010420;28;20084;-90
2023/08/31 10:25:03;;;;;;;53.03;14.85;;;;;;;20.79;46.85;93222.44;4995963;28;20545;-90
2023/08/31 10:27:36;;;;;;;33.95;12.00;;;;;;;20.80;46.47;93220.44;4976798;28;20050;-90
2023/08/31 10:30:22;;;;;;;27.60;9.88;;;;;;;20.79;46.01;93224.47;4993457;28;20499;-89
2023/08/31 10:33:09;;;;;;;21.08;8.60;;;;;;;20.71;45.88;93215.41;5003819;28;20049;-89
2023/08/31 10:35:46;;;;;;;20.60;7.60;;;;;;;20.72;45.91;93219.63;5010389;28;20042;-89
2023/08/31 10:38:27;;;;;;;19.30;7.35;;;;;;;20.71;45.85;93215.41;4992689;28;20045;-86
2023/08/31 10:41:05;;;;;;;19.10;5.72;;;;;;;20.71;46.11;93207.91;5000834;28;20059;-91
2023/08/31 10:43:57;;;;;;;14.55;4.93;;;;;;;20.70;46.13;93200.94;5013045;28;20192;-92
2023/08/31 10:46:31;;;;;;;12.35;4.65;;;;;;;20.70;46.31;93198.19;5009078;28;20543;-92
2023/08/31 10:49:03;;;;;;;124.18;14.73;;;;;;;20.76;45.96;93198.81;5001360;28;20099;-90
2023/08/31 10:51:31;;;;;;;34.42;7.35;;;;;;;20.74;46.38;93211.59;4989528;28;20124;-91
2023/08/31 10:54:13;;;;;;;43.28;10.15;;;;;;;20.79;46.56;93210.72;5001289;28;20089;-88
2023/08/31 10:57:00;;;;;;;41.08;12.88;;;;;;;20.77;46.44;93207.78;5012124;28;20397;-91
2023/08/31 10:59:26;;;;;;;68.95;18.23;;;;;;;20.93;46.14;93208.69;4997055;28;20410;-90
2023/08/31 11:02:04;;;;;;;71.63;15.73;;;;;;;20.84;46.46;93212.63;5011560;28;20049;-90
2023/08/31 11:04:29;;;;;;;55.40;14.55;;;;;;;20.82;46.69;93212.41;4993726;28;20505;-92
2023/08/31 11:07:17;;;;;;;65.38;16.23;;;;;;;20.84;46.80;93216.09;4997456;28;20056;-89
2023/08/31 11:09:43;;;;;;;68.97;14.35;;;;;;;20.84;46.29;93209.88;4980579;28;20651;-91
2023/08/31 11:12:09;;;;;;;65.85;15.85;;;;;;;20.83;46.71;93213.88;5012335;28;20056;-91
2023/08/31 11:14:36;;;;;;;52.72;18.33;;;;;;;20.83;46.68;93214.63;4996233;28;20046;-91
2023/08/31 11:17:02;;;;;;;55.47;18.08;;;;;;;20.84;46.16;93204.38;4979051;28;20072;-89
2023/08/31 11:19:31;;;;;;;37.85;14.85;;;;;;;20.83;46.21;93195.41;5007618;28;20054;-90
2023/08/31 11:21:57;;;;;;;57.05;19.25;;;;;;;20.83;46.17;93200.88;5003565;28;20140;-91
2023/08/31 11:24:22;;;;;;;110.93;37.88;;;;;;;20.82;46.07;93202.16;4983548;28;20049;-92